createdAt,value
2017-08-29T00:01:01.782Z,19.67
2017-08-29T00:03:29.273Z,15.00
2017-08-29T00:05:56.774Z,15.90
2017-08-29T00:08:24.249Z,16.87
2017-08-29T00:10:52.493Z,16.80
2017-08-29T00:13:20.004Z,17.50
2017-08-29T00:15:47.481Z,17.57
2017-08-29T00:18:14.957Z,19.60
2017-08-29T00:20:42.465Z,15.73
2017-08-29T00:23:10.709Z,17.50
2017-08-29T00:25:38.185Z,17.63
2017-08-29T00:28:05.678Z,18.93
2017-08-29T00:30:33.157Z,17.87
2017-08-29T00:33:00.633Z,17.77
2017-08-29T00:35:28.161Z,20.80
2017-08-29T00:37:55.633Z,15.53
2017-08-29T00:40:23.109Z,18.90
2017-08-29T00:42:50.606Z,17.70
2017-08-29T00:45:18.085Z,19.83
2017-08-29T00:47:45.565Z,16.63
2017-08-29T00:50:13.081Z,16.47
2017-08-29T00:52:40.561Z,15.60
2017-08-29T00:55:08.041Z,14.77
2017-08-29T00:57:35.538Z,16.93
2017-08-29T01:00:03.014Z,16.87
2017-08-29T01:02:30.493Z,16.40
2017-08-29T01:04:57.984Z,19.73
2017-08-29T01:07:25.461Z,32.63
2017-08-29T01:09:52.936Z,18.03
2017-08-29T01:12:20.433Z,15.30
2017-08-29T01:14:47.905Z,13.77
2017-08-29T01:17:15.709Z,14.67
2017-08-29T01:19:43.210Z,14.60
2017-08-29T01:22:11.331Z,14.47
2017-08-29T01:24:39.395Z,19.73
2017-08-29T01:27:07.528Z,16.13
2017-08-29T01:29:35.001Z,16.33
2017-08-29T01:32:02.486Z,15.47
2017-08-29T01:34:30.746Z,17.67
2017-08-29T01:36:58.224Z,17.17
2017-08-29T01:39:27.000Z,18.10
2017-08-29T01:41:54.765Z,16.53
2017-08-29T01:44:22.580Z,16.57
2017-08-29T01:46:50.109Z,19.23
2017-08-29T01:49:18.111Z,18.73
2017-08-29T01:51:46.209Z,17.07
2017-08-29T01:54:13.685Z,14.60
2017-08-29T01:56:41.902Z,19.43
2017-08-29T01:59:09.733Z,14.50
2017-08-29T02:01:37.974Z,18.13
2017-08-29T02:04:05.477Z,16.33
2017-08-29T02:06:32.961Z,16.03
2017-08-29T02:09:00.445Z,17.00
2017-08-29T02:11:27.941Z,17.33
2017-08-29T02:13:56.234Z,21.10
2017-08-29T02:16:24.013Z,15.83
2017-08-29T02:18:51.663Z,22.30
2017-08-29T02:21:19.141Z,17.47
2017-08-29T02:23:46.617Z,29.43
2017-08-29T02:26:14.114Z,18.07
2017-08-29T02:28:41.602Z,17.33
2017-08-29T02:31:09.085Z,18.13
2017-08-29T02:33:36.868Z,21.20
2017-08-29T02:36:04.348Z,17.70
2017-08-29T02:38:31.833Z,18.10
2017-08-29T02:40:59.393Z,18.60
2017-08-29T02:43:26.873Z,18.57
2017-08-29T02:45:54.359Z,18.27
2017-08-29T02:48:21.858Z,17.77
2017-08-29T02:50:49.338Z,18.03
2017-08-29T02:53:16.817Z,28.53
2017-08-29T02:55:44.310Z,18.37
2017-08-29T02:58:12.550Z,18.80
2017-08-29T03:00:40.281Z,20.00
2017-08-29T03:03:07.781Z,18.00
2017-08-29T03:05:35.261Z,17.30
2017-08-29T03:08:03.505Z,20.70
2017-08-29T03:10:31.001Z,18.60
2017-08-29T03:12:58.485Z,18.43
2017-08-29T03:15:25.970Z,17.93
2017-08-29T03:17:53.486Z,29.73
2017-08-29T03:20:20.962Z,17.70
2017-08-29T03:22:48.442Z,15.80
2017-08-29T03:25:15.942Z,16.87
2017-08-29T03:27:43.421Z,22.10
2017-08-29T03:30:10.914Z,17.50
2017-08-29T03:32:38.649Z,17.23
2017-08-29T03:35:06.129Z,15.63
2017-08-29T03:37:33.611Z,17.23
2017-08-29T03:40:01.109Z,17.40
2017-08-29T03:42:29.092Z,15.43
2017-08-29T03:44:56.573Z,22.00
2017-08-29T03:47:24.078Z,22.03
2017-08-29T03:49:51.557Z,16.73
2017-08-29T03:52:19.037Z,17.00
2017-08-29T03:54:46.533Z,16.00
2017-08-29T03:57:14.014Z,14.37
2017-08-29T03:59:41.492Z,19.53
2017-08-29T04:02:10.121Z,15.43
2017-08-29T04:04:37.717Z,18.33
2017-08-29T04:07:05.497Z,16.10
2017-08-29T04:09:32.993Z,18.40
2017-08-29T04:12:00.469Z,18.63
2017-08-29T04:14:28.713Z,18.97
2017-08-29T04:16:56.554Z,16.60
2017-08-29T04:19:24.029Z,17.90
2017-08-29T04:21:51.506Z,18.30
2017-08-29T04:24:19.229Z,18.47
2017-08-29T04:26:47.098Z,18.80
2017-08-29T04:29:14.577Z,20.90
2017-08-29T04:31:42.073Z,16.70
2017-08-29T04:34:09.549Z,17.80
2017-08-29T04:36:37.028Z,20.40
2017-08-29T04:39:04.530Z,19.47
2017-08-29T04:41:32.005Z,17.60
2017-08-29T04:44:00.245Z,19.13
2017-08-29T04:46:28.033Z,24.23
2017-08-29T04:48:56.282Z,17.37
2017-08-29T04:51:23.762Z,17.50
2017-08-29T04:53:51.260Z,17.17
2017-08-29T04:56:18.742Z,18.93
2017-08-29T04:58:46.218Z,22.67
2017-08-29T05:01:13.713Z,19.60
2017-08-29T05:03:41.188Z,21.30
2017-08-29T05:06:08.665Z,28.87
2017-08-29T05:08:36.169Z,21.17
2017-08-29T05:11:04.434Z,22.00
2017-08-29T05:13:32.685Z,22.03
2017-08-29T05:16:00.185Z,20.93
2017-08-29T05:18:27.666Z,16.73
2017-08-29T05:20:55.144Z,19.10
2017-08-29T05:23:22.645Z,16.57
2017-08-29T05:25:50.355Z,30.43
2017-08-29T05:28:17.833Z,17.90
2017-08-29T05:30:45.346Z,16.23
2017-08-29T05:33:12.856Z,16.53
2017-08-29T05:35:47.110Z,13.13
2017-08-29T05:38:14.676Z,18.00
2017-08-29T05:40:42.152Z,13.43
2017-08-29T05:43:09.653Z,12.30
2017-08-29T05:45:37.133Z,13.47
2017-08-29T05:48:04.610Z,12.90
2017-08-29T05:50:32.109Z,16.03
2017-08-29T05:52:59.593Z,16.03
2017-08-29T05:55:27.073Z,12.97
2017-08-29T05:57:54.870Z,14.03
2017-08-29T06:00:22.401Z,12.47
2017-08-29T06:02:49.879Z,13.37
2017-08-29T06:05:17.397Z,13.97
2017-08-29T06:07:44.869Z,13.03
2017-08-29T06:10:12.346Z,13.60
2017-08-29T06:12:39.850Z,12.93
2017-08-29T06:15:07.328Z,14.20
2017-08-29T06:17:35.574Z,13.60
2017-08-29T06:20:03.073Z,13.13
2017-08-29T06:22:30.554Z,15.70
2017-08-29T06:24:58.033Z,13.03
2017-08-29T06:27:25.533Z,13.33
2017-08-29T06:29:53.026Z,14.10
2017-08-29T06:32:20.797Z,13.93
2017-08-29T06:34:48.293Z,14.67
2017-08-29T06:37:16.596Z,13.53
2017-08-29T06:39:44.841Z,14.00
2017-08-29T06:42:12.337Z,16.47
2017-08-29T06:44:39.813Z,13.00
2017-08-29T06:47:07.287Z,14.40
2017-08-29T06:49:34.781Z,12.30
2017-08-29T06:52:02.260Z,13.57
2017-08-29T06:54:30.501Z,16.67
2017-08-29T06:56:57.997Z,15.50
2017-08-29T06:59:25.477Z,13.93
2017-08-29T07:01:54.089Z,18.80
2017-08-29T07:04:21.589Z,12.63
2017-08-29T07:06:49.105Z,14.00
2017-08-29T07:09:17.349Z,13.43
2017-08-29T07:11:44.841Z,12.97
2017-08-29T07:14:12.323Z,13.00
2017-08-29T07:16:39.802Z,14.47
2017-08-29T07:19:07.305Z,14.23
2017-08-29T07:21:34.782Z,13.30
2017-08-29T07:24:02.265Z,11.97
2017-08-29T07:26:29.769Z,13.00
2017-08-29T07:28:57.257Z,11.77
2017-08-29T07:31:24.749Z,13.27
2017-08-29T07:33:52.258Z,11.20
2017-08-29T07:36:19.733Z,11.60
2017-08-29T07:38:47.217Z,12.33
2017-08-29T07:41:14.717Z,12.63
2017-08-29T07:43:42.193Z,12.70
2017-08-29T07:46:09.670Z,12.80
2017-08-29T07:48:37.937Z,13.20
2017-08-29T07:51:05.409Z,14.13
2017-08-29T07:53:33.649Z,14.07
2017-08-29T07:56:01.159Z,12.03
2017-08-29T07:58:28.647Z,13.77
2017-08-29T08:00:56.129Z,13.87
2017-08-29T08:03:23.629Z,13.47
2017-08-29T08:05:51.105Z,13.20
2017-08-29T08:08:18.591Z,13.23
2017-08-29T08:10:46.093Z,13.10
2017-08-29T08:13:13.573Z,14.50
2017-08-29T08:15:41.053Z,13.83
2017-08-29T08:18:08.569Z,13.07
2017-08-29T08:20:36.045Z,13.33
2017-08-29T08:23:03.526Z,13.93
2017-08-29T08:25:31.033Z,17.13
2017-08-29T08:27:58.509Z,14.70
2017-08-29T08:30:25.985Z,14.90
2017-08-29T08:32:53.485Z,18.13
2017-08-29T08:35:20.969Z,13.97
2017-08-29T08:37:48.454Z,15.07
2017-08-29T08:40:15.953Z,13.17
2017-08-29T08:42:43.438Z,14.30
2017-08-29T08:45:10.915Z,15.73
2017-08-29T08:47:38.409Z,14.50
2017-08-29T08:50:05.890Z,12.83
2017-08-29T08:55:07.382Z,13.13
2017-08-29T08:57:34.875Z,15.20
2017-08-29T09:00:02.364Z,13.17
2017-08-29T09:02:29.873Z,13.93
2017-08-29T09:04:57.349Z,12.47
2017-08-29T09:07:25.101Z,13.47
2017-08-29T09:09:52.866Z,14.23
2017-08-29T09:12:20.346Z,13.07
2017-08-29T09:14:48.596Z,12.07
2017-08-29T09:17:16.099Z,12.63
2017-08-29T09:19:43.577Z,12.90
2017-08-29T09:22:11.054Z,12.10
2017-08-29T09:24:38.562Z,12.90
2017-08-29T09:27:06.037Z,12.03
2017-08-29T09:29:33.516Z,12.67
2017-08-29T09:32:01.045Z,11.70
2017-08-29T09:34:28.521Z,12.00
2017-08-29T09:36:56.770Z,12.20
2017-08-29T09:39:24.493Z,11.43
2017-08-29T09:41:51.969Z,10.93
2017-08-29T09:44:19.446Z,11.00
2017-08-29T09:46:46.959Z,11.33
2017-08-29T09:49:14.461Z,11.37
2017-08-29T09:51:41.993Z,10.20
2017-08-29T09:54:09.496Z,11.33
2017-08-29T09:56:36.974Z,11.00
2017-08-29T09:59:04.449Z,18.10
2017-08-29T10:01:31.945Z,9.93
2017-08-29T10:03:59.425Z,14.50
2017-08-29T10:06:26.893Z,9.13
2017-08-29T10:08:54.384Z,10.17
2017-08-29T10:11:21.858Z,9.80
2017-08-29T10:13:49.334Z,9.03
2017-08-29T10:16:16.829Z,10.97
2017-08-29T10:18:44.298Z,9.10
2017-08-29T10:21:11.769Z,9.20
2017-08-29T10:23:39.261Z,10.03
2017-08-29T10:26:06.730Z,9.17
2017-08-29T10:28:34.203Z,9.10
2017-08-29T10:31:02.465Z,9.67
2017-08-29T10:33:29.936Z,8.50
2017-08-29T10:35:57.410Z,8.70
2017-08-29T10:38:24.913Z,8.53
2017-08-29T10:40:52.386Z,13.53
2017-08-29T10:43:19.858Z,8.93
2017-08-29T10:45:48.129Z,9.63
2017-08-29T10:48:15.600Z,9.03
2017-08-29T10:50:43.079Z,9.90
2017-08-29T10:53:10.570Z,9.00
2017-08-29T10:55:38.048Z,9.23
2017-08-29T10:58:05.517Z,8.93
2017-08-29T11:00:33.014Z,9.10
2017-08-29T11:03:00.485Z,9.47
2017-08-29T11:05:27.954Z,9.17
2017-08-29T11:07:55.446Z,8.53
2017-08-29T11:10:22.917Z,9.20
2017-08-29T11:12:50.434Z,8.07
2017-08-29T11:15:18.221Z,9.13
2017-08-29T11:17:45.693Z,8.97
2017-08-29T11:20:13.165Z,8.03
2017-08-29T11:22:40.658Z,8.70
2017-08-29T11:25:08.130Z,8.13
2017-08-29T11:27:35.607Z,9.00
2017-08-29T11:30:03.103Z,8.33
2017-08-29T11:32:30.578Z,7.47
2017-08-29T11:34:58.049Z,8.67
2017-08-29T11:37:25.549Z,9.03
2017-08-29T11:39:53.017Z,8.20
2017-08-29T11:42:20.489Z,8.83
2017-08-29T11:44:48.248Z,7.87
2017-08-29T11:47:15.725Z,8.00
2017-08-29T11:49:43.194Z,9.67
2017-08-29T11:52:10.690Z,9.20
2017-08-29T11:54:38.161Z,7.73
2017-08-29T11:57:05.629Z,9.13
2017-08-29T11:59:33.125Z,9.13
2017-08-29T12:02:00.597Z,7.27
2017-08-29T12:04:28.069Z,7.53
2017-08-29T12:06:56.593Z,7.13
2017-08-29T12:09:24.065Z,8.67
2017-08-29T12:11:51.538Z,6.93
2017-08-29T12:14:19.029Z,7.20
2017-08-29T12:16:46.502Z,8.53
2017-08-29T12:19:13.976Z,7.27
2017-08-29T12:21:41.473Z,7.97
2017-08-29T12:24:08.941Z,7.67
2017-08-29T12:26:36.417Z,7.53
2017-08-29T12:29:04.681Z,7.83
2017-08-29T12:31:32.153Z,8.60
2017-08-29T12:34:00.389Z,8.30
2017-08-29T12:36:27.885Z,8.17
2017-08-29T12:38:55.357Z,7.67
2017-08-29T12:41:22.825Z,9.03
2017-08-29T12:43:50.318Z,7.87
2017-08-29T12:46:17.793Z,7.63
2017-08-29T12:48:45.265Z,7.47
2017-08-29T12:51:12.757Z,9.20
2017-08-29T12:53:40.230Z,6.43
2017-08-29T12:56:07.701Z,7.70
2017-08-29T12:58:35.188Z,7.30
2017-08-29T13:01:03.425Z,6.83
2017-08-29T13:03:30.897Z,9.93
2017-08-29T13:05:58.389Z,7.27
2017-08-29T13:08:25.862Z,7.17
2017-08-29T13:10:53.333Z,7.63
2017-08-29T13:13:20.825Z,5.70
2017-08-29T13:15:48.293Z,6.03
2017-08-29T13:18:16.166Z,6.53
2017-08-29T13:20:43.658Z,7.73
2017-08-29T13:23:11.129Z,6.77
2017-08-29T13:25:38.601Z,7.80
2017-08-29T13:28:06.106Z,6.70
2017-08-29T13:30:33.579Z,8.27
2017-08-29T13:33:01.054Z,6.30
2017-08-29T13:35:28.817Z,6.10
2017-08-29T13:37:56.289Z,7.30
2017-08-29T13:40:23.761Z,6.97
2017-08-29T13:42:51.253Z,6.50
2017-08-29T13:45:18.729Z,6.40
2017-08-29T13:47:46.505Z,7.27
2017-08-29T13:50:14.001Z,6.80
2017-08-29T13:52:41.472Z,7.43
2017-08-29T13:55:08.950Z,5.90
2017-08-29T13:57:36.445Z,7.93
2017-08-29T14:00:03.922Z,7.27
2017-08-29T14:02:31.398Z,6.23
2017-08-29T14:04:58.889Z,7.47
2017-08-29T14:07:26.361Z,6.90
2017-08-29T14:09:53.832Z,6.53
2017-08-29T14:12:21.321Z,6.40
2017-08-29T14:14:48.793Z,7.73
2017-08-29T14:17:16.265Z,8.47
2017-08-29T14:19:43.761Z,6.30
2017-08-29T14:22:11.233Z,7.70
2017-08-29T14:24:38.700Z,6.73
2017-08-29T14:27:06.193Z,6.73
2017-08-29T14:29:33.666Z,6.30
2017-08-29T14:32:01.185Z,6.73
2017-08-29T14:34:28.689Z,7.40
2017-08-29T14:36:56.161Z,8.90
2017-08-29T14:39:23.633Z,7.00
2017-08-29T14:41:51.125Z,6.20
2017-08-29T14:44:18.598Z,5.77
2017-08-29T14:46:58.233Z,5.63
2017-08-29T14:49:25.701Z,5.97
2017-08-29T14:51:53.173Z,6.53
2017-08-29T14:54:20.665Z,5.83
2017-08-29T14:56:48.133Z,7.00
2017-08-29T14:59:15.601Z,6.93
2017-08-29T15:01:43.410Z,6.60
2017-08-29T15:04:10.881Z,7.33
2017-08-29T15:06:38.358Z,7.23
2017-08-29T15:09:05.849Z,6.63
2017-08-29T15:11:33.321Z,7.60
2017-08-29T15:14:00.792Z,7.23
2017-08-29T15:16:28.289Z,6.97
2017-08-29T15:18:55.762Z,7.30
2017-08-29T15:21:23.238Z,6.17
2017-08-29T15:23:51.035Z,6.70
2017-08-29T15:26:18.514Z,7.50
2017-08-29T15:28:45.985Z,6.77
2017-08-29T15:31:13.550Z,7.07
2017-08-29T15:33:41.802Z,7.80
2017-08-29T15:36:09.281Z,8.40
2017-08-29T15:38:36.773Z,7.57
2017-08-29T15:41:04.249Z,8.80
2017-08-29T15:43:31.728Z,7.47
2017-08-29T15:45:59.217Z,8.70
2017-08-29T15:48:26.691Z,8.60
2017-08-29T15:50:54.162Z,8.00
2017-08-29T15:53:21.653Z,7.80
2017-08-29T15:55:49.125Z,7.43
2017-08-29T15:58:17.037Z,7.27
2017-08-29T16:00:44.529Z,6.70
2017-08-29T16:03:12.005Z,7.10
2017-08-29T16:05:39.493Z,6.90
2017-08-29T16:08:06.988Z,6.57
2017-08-29T16:10:34.458Z,7.53
2017-08-29T16:13:01.936Z,7.70
2017-08-29T16:15:29.434Z,7.67
2017-08-29T16:17:57.225Z,7.40
2017-08-29T16:20:24.700Z,8.10
2017-08-29T16:22:52.197Z,6.80
2017-08-29T16:25:19.669Z,7.23
2017-08-29T16:27:47.910Z,10.23
2017-08-29T16:30:15.402Z,7.80
2017-08-29T16:32:42.877Z,11.80
2017-08-29T16:35:10.353Z,8.00
2017-08-29T16:37:37.846Z,8.07
2017-08-29T16:40:05.349Z,6.70
2017-08-29T16:42:32.833Z,6.90
2017-08-29T16:45:00.324Z,7.20
2017-08-29T16:47:27.793Z,7.73
2017-08-29T16:49:56.038Z,7.47
2017-08-29T16:52:23.529Z,6.73
2017-08-29T16:54:51.762Z,7.13
2017-08-29T16:57:19.242Z,12.80
2017-08-29T16:59:46.738Z,10.43
2017-08-29T17:02:14.208Z,7.00
2017-08-29T17:04:41.679Z,8.77
2017-08-29T17:07:09.173Z,6.83
2017-08-29T17:09:37.641Z,8.23
2017-08-29T17:12:05.114Z,7.30
2017-08-29T17:14:32.617Z,13.13
2017-08-29T17:17:00.089Z,10.90
2017-08-29T17:19:27.565Z,8.63
2017-08-29T17:21:55.345Z,9.23
2017-08-29T17:24:22.829Z,10.70
2017-08-29T17:26:50.307Z,8.00
2017-08-29T17:29:17.853Z,7.30
2017-08-29T17:31:45.337Z,15.17
2017-08-29T17:34:12.805Z,8.53
2017-08-29T17:36:40.305Z,12.73
2017-08-29T17:39:08.542Z,8.50
2017-08-29T17:41:36.029Z,8.63
2017-08-29T17:44:03.521Z,8.03
2017-08-29T17:46:30.993Z,9.70
2017-08-29T17:48:58.465Z,8.93
2017-08-29T17:51:25.970Z,10.53
2017-08-29T17:53:53.441Z,9.83
2017-08-29T17:56:20.909Z,7.97
2017-08-29T17:58:48.677Z,9.30
2017-08-29T18:01:16.147Z,7.40
2017-08-29T18:03:43.629Z,12.90
2017-08-29T18:06:11.121Z,8.57
2017-08-29T18:08:38.591Z,8.53
2017-08-29T18:11:06.061Z,7.73
2017-08-29T18:13:33.559Z,7.90
2017-08-29T18:16:01.034Z,11.33
2017-08-29T18:18:28.511Z,11.70
2017-08-29T18:20:56.770Z,8.80
2017-08-29T18:23:24.293Z,13.73
2017-08-29T18:25:52.404Z,9.80
2017-08-29T18:28:23.047Z,8.20
2017-08-29T18:30:56.410Z,10.20
2017-08-29T18:33:25.485Z,9.70
2017-08-29T18:35:54.035Z,34.97
2017-08-29T18:38:22.240Z,16.37
2017-08-29T18:40:51.552Z,13.33
2017-08-29T18:43:20.181Z,8.93
2017-08-29T18:45:49.492Z,8.93
2017-08-29T18:48:18.009Z,7.77
2017-08-29T18:50:47.812Z,8.73
2017-08-29T18:53:18.136Z,9.90
2017-08-29T18:55:48.882Z,8.30
2017-08-29T18:58:19.114Z,9.43
2017-08-29T19:00:48.975Z,16.70
2017-08-29T19:03:18.108Z,9.57
2017-08-29T19:05:50.062Z,10.60
2017-08-29T19:08:20.076Z,9.93
2017-08-29T19:10:53.129Z,10.10
2017-08-29T19:13:24.533Z,9.40
2017-08-29T19:15:56.982Z,14.60
2017-08-29T19:18:27.266Z,10.23
2017-08-29T19:20:57.608Z,9.00
2017-08-29T19:23:29.059Z,8.33
2017-08-29T19:25:59.545Z,9.50
2017-08-29T19:28:27.153Z,10.37
2017-08-29T19:30:54.914Z,10.70
2017-08-29T19:33:22.388Z,8.67
2017-08-29T19:35:49.865Z,9.67
2017-08-29T19:38:17.358Z,8.40
2017-08-29T19:40:44.835Z,11.17
2017-08-29T19:43:12.314Z,9.73
2017-08-29T19:45:39.861Z,9.63
2017-08-29T19:48:07.349Z,10.97
2017-08-29T19:50:35.961Z,8.93
2017-08-29T19:53:04.229Z,10.23
2017-08-29T19:55:31.707Z,13.87
2017-08-29T19:57:59.185Z,8.53
2017-08-29T20:00:26.682Z,11.30
2017-08-29T20:02:55.002Z,9.10
2017-08-29T20:05:22.473Z,8.30
2017-08-29T20:07:49.969Z,9.70
2017-08-29T20:10:17.457Z,9.00
2017-08-29T20:12:44.929Z,8.00
2017-08-29T20:15:12.421Z,8.83
2017-08-29T20:17:39.895Z,7.77
2017-08-29T20:20:07.367Z,6.83
2017-08-29T20:22:34.861Z,9.33
2017-08-29T20:25:02.330Z,8.37
2017-08-29T20:27:29.805Z,8.27
2017-08-29T20:29:57.294Z,8.83
2017-08-29T20:32:24.773Z,9.03
2017-08-29T20:34:53.010Z,8.77
2017-08-29T20:37:20.505Z,7.87
2017-08-29T20:39:48.741Z,8.97
2017-08-29T20:42:16.214Z,7.50
2017-08-29T20:44:43.710Z,7.50
2017-08-29T20:47:11.185Z,8.90
2017-08-29T20:49:38.670Z,13.40
2017-08-29T20:52:06.405Z,7.93
2017-08-29T20:54:33.881Z,8.03
2017-08-29T20:57:01.366Z,8.47
2017-08-29T20:59:28.865Z,9.23
2017-08-29T21:01:56.339Z,7.37
2017-08-29T21:04:23.815Z,7.70
2017-08-29T21:06:51.305Z,7.43
2017-08-29T21:09:19.009Z,7.03
2017-08-29T21:11:46.482Z,9.90
2017-08-29T21:14:13.974Z,6.87
2017-08-29T21:16:41.444Z,7.13
2017-08-29T21:19:09.962Z,8.20
2017-08-29T21:21:37.457Z,7.97
2017-08-29T21:24:04.925Z,9.43
2017-08-29T21:26:32.409Z,8.20
2017-08-29T21:28:59.921Z,7.97
2017-08-29T21:31:27.419Z,6.17
2017-08-29T21:33:54.881Z,7.20
2017-08-29T21:36:22.374Z,7.83
2017-08-29T21:38:49.845Z,7.10
2017-08-29T21:41:17.317Z,9.80
2017-08-29T21:43:44.809Z,7.50
2017-08-29T21:46:12.285Z,9.83
2017-08-29T21:48:40.058Z,8.00
2017-08-29T21:51:07.557Z,12.87
2017-08-29T21:53:35.053Z,8.03
2017-08-29T21:56:02.522Z,7.67
2017-08-29T21:58:30.018Z,7.27
2017-08-29T22:00:57.490Z,6.90
2017-08-29T22:03:24.976Z,8.67
2017-08-29T22:05:52.470Z,8.37
2017-08-29T22:08:19.940Z,7.10
2017-08-29T22:10:47.416Z,10.10
2017-08-29T22:13:15.122Z,8.50
2017-08-29T22:15:42.594Z,7.07
2017-08-29T22:18:10.073Z,7.87
2017-08-29T22:20:37.567Z,11.80
2017-08-29T22:23:05.054Z,7.03
2017-08-29T22:25:32.532Z,10.63
2017-08-29T22:28:00.030Z,8.97
2017-08-29T22:30:27.506Z,7.97
2017-08-29T22:32:54.982Z,7.30
2017-08-29T22:35:22.481Z,6.63
2017-08-29T22:37:49.955Z,6.90
2017-08-29T22:40:17.434Z,20.97
2017-08-29T22:42:45.281Z,7.40
2017-08-29T22:45:12.753Z,7.73
2017-08-29T22:47:40.237Z,7.43
2017-08-29T22:50:07.726Z,8.20
2017-08-29T22:52:35.197Z,8.70
2017-08-29T22:55:02.924Z,7.00
2017-08-29T22:57:30.427Z,15.67
2017-08-29T22:59:57.897Z,7.57
2017-08-29T23:02:25.372Z,7.53
2017-08-29T23:04:52.861Z,8.10
2017-08-29T23:07:20.553Z,9.17
2017-08-29T23:09:48.030Z,7.33
2017-08-29T23:12:16.293Z,7.80
2017-08-29T23:14:43.765Z,6.97
2017-08-29T23:17:11.237Z,7.17
2017-08-29T23:19:38.733Z,8.50
2017-08-29T23:22:06.478Z,7.30
2017-08-29T23:24:34.241Z,7.37
2017-08-29T23:27:01.733Z,9.73
2017-08-29T23:29:29.205Z,7.73
2017-08-29T23:31:56.681Z,10.23
2017-08-29T23:34:24.181Z,11.20
2017-08-29T23:36:51.657Z,8.27
2017-08-29T23:39:19.124Z,8.60
2017-08-29T23:41:46.625Z,7.17
2017-08-29T23:44:14.093Z,8.43
2017-08-29T23:46:41.567Z,8.20
2017-08-29T23:49:09.061Z,7.80
2017-08-29T23:51:36.530Z,9.00
2017-08-29T23:54:04.764Z,8.97
2017-08-29T23:56:32.264Z,8.70
2017-08-29T23:58:59.738Z,7.87
